Time;durP1;ratioP1;P1;durP2;ratioP2;P2;SDS_P1;SDS_P2;PMS_P1;PMS_P2;Temp;Humidity;BMP_temperature;BMP_pressure;BME280_temperature;BME280_humidity;BME280_pressure;Samples;Min_cycle;Max_cycle;Signal;HPM_P1;HPM_P2
2023/09/01 00:00:20;;;;;;;;;;;21.80;65.70;;;;;;5057624;28;19940;-35
2023/09/01 00:02:47;;;;;;;;;;;21.80;65.60;;;;;;5057873;28;19952;-34
2023/09/01 00:05:12;;;;;;;;;;;21.80;65.60;;;;;;5065185;28;19939;-35
2023/09/01 00:07:38;;;;;;;;;;;21.70;65.20;;;;;;5064925;28;20358;-35
2023/09/01 00:10:05;;;;;;;;;;;21.70;65.00;;;;;;5065191;28;20609;-34
2023/09/01 00:12:31;;;;;;;;;;;21.70;65.20;;;;;;5064105;28;19976;-35
2023/09/01 00:14:57;;;;;;;;;;;21.70;65.40;;;;;;5059611;28;19912;-35
2023/09/01 00:17:23;;;;;;;;;;;21.70;65.40;;;;;;5053852;28;20251;-35
2023/09/01 00:19:49;;;;;;;;;;;21.60;65.00;;;;;;5053507;28;19913;-35
2023/09/01 00:22:15;;;;;;;;;;;21.60;65.60;;;;;;5055708;28;19917;-34
2023/09/01 00:24:41;;;;;;;;;;;21.60;65.70;;;;;;5051928;28;19924;-35
2023/09/01 00:27:07;;;;;;;;;;;21.60;65.70;;;;;;5060106;28;19913;-34
2023/09/01 00:29:34;;;;;;;;;;;21.60;65.90;;;;;;5053032;28;19917;-34
2023/09/01 00:32:00;;;;;;;;;;;21.60;65.70;;;;;;5051079;28;19909;-33
2023/09/01 00:34:26;;;;;;;;;;;21.60;65.70;;;;;;5053267;28;19912;-35
2023/09/01 00:36:52;;;;;;;;;;;21.60;65.70;;;;;;5058896;28;20031;-33
2023/09/01 00:39:18;;;;;;;;;;;21.60;65.30;;;;;;5056518;28;19912;-34
2023/09/01 00:41:44;;;;;;;;;;;21.50;65.30;;;;;;5057193;28;19923;-33
2023/09/01 00:44:13;;;;;;;;;;;21.50;65.20;;;;;;5031346;28;19909;-34
2023/09/01 00:46:39;;;;;;;;;;;21.50;65.20;;;;;;5058168;28;19909;-34
2023/09/01 00:49:05;;;;;;;;;;;21.50;64.90;;;;;;5044912;28;20377;-33
2023/09/01 00:51:31;;;;;;;;;;;21.40;64.80;;;;;;5045961;28;19913;-33
2023/09/01 00:53:57;;;;;;;;;;;21.40;64.50;;;;;;5049806;28;19908;-33
2023/09/01 00:56:23;;;;;;;;;;;21.40;64.80;;;;;;5048819;28;19919;-33
2023/09/01 00:58:48;;;;;;;;;;;21.40;64.30;;;;;;5057471;28;19909;-34
2023/09/01 01:01:14;;;;;;;;;;;21.40;65.20;;;;;;5047666;28;19913;-37
2023/09/01 01:03:40;;;;;;;;;;;21.40;64.90;;;;;;5051575;28;19926;-33
2023/09/01 01:06:20;;;;;;;;;;;21.30;65.30;;;;;;5052336;28;19908;-33
2023/09/01 01:09:02;;;;;;;;;;;21.30;65.30;;;;;;5050866;28;19915;-33
2023/09/01 01:11:41;;;;;;;;;;;21.30;65.40;;;;;;5062522;28;19920;-33
2023/09/01 01:14:07;;;;;;;;;;;21.30;66.10;;;;;;5052243;28;20616;-32
2023/09/01 01:16:33;;;;;;;;;;;21.20;65.00;;;;;;5051843;28;19913;-33
2023/09/01 01:19:01;;;;;;;;;;;21.20;65.00;;;;;;5052106;28;20655;-33
2023/09/01 01:21:27;;;;;;;;;;;21.20;64.80;;;;;;5048652;28;19923;-33
2023/09/01 01:23:53;;;;;;;;;;;21.20;64.50;;;;;;5062231;28;19920;-33
2023/09/01 01:26:19;;;;;;;;;;;21.20;64.50;;;;;;5036405;28;19923;-34
2023/09/01 01:28:45;;;;;;;;;;;21.10;64.50;;;;;;5052205;28;19931;-33
2023/09/01 01:31:11;;;;;;;;;;;21.10;64.70;;;;;;5053558;28;20377;-33
2023/09/01 01:33:39;;;;;;;;;;;21.10;64.60;;;;;;5059291;28;19938;-33
2023/09/01 01:36:08;;;;;;;;;;;21.10;64.80;;;;;;5060968;28;20351;-33
2023/09/01 01:38:34;;;;;;;;;;;21.10;66.30;;;;;;5045869;28;19944;-33
2023/09/01 01:41:20;;;;;;;;;;;21.10;67.70;;;;;;5038041;28;19905;-33
2023/09/01 01:43:46;;;;;;;;;;;21.10;67.90;;;;;;5050910;28;19912;-33
2023/09/01 01:46:12;;;;;;;;;;;21.10;68.30;;;;;;5030806;28;19916;-33
2023/09/01 01:48:37;;;;;;;;;;;21.00;68.20;;;;;;5050766;28;19913;-33
2023/09/01 01:51:05;;;;;;;;;;;21.10;68.50;;;;;;5045910;28;19913;-33
2023/09/01 01:53:32;;;;;;;;;;;21.10;68.40;;;;;;5050710;28;19980;-33
2023/09/01 01:55:58;;;;;;;;;;;21.10;68.70;;;;;;5048847;28;20540;-33
2023/09/01 01:58:24;;;;;;;;;;;21.10;68.70;;;;;;5045667;28;19909;-33
2023/09/01 02:00:50;;;;;;;;;;;21.10;68.80;;;;;;5052510;28;20311;-34
2023/09/01 02:03:16;;;;;;;;;;;21.10;69.00;;;;;;5053343;28;19917;-33
2023/09/01 02:05:42;;;;;;;;;;;21.10;69.20;;;;;;5055825;28;19919;-34
2023/09/01 02:08:08;;;;;;;;;;;21.10;69.20;;;;;;5047706;28;19976;-33
2023/09/01 02:10:34;;;;;;;;;;;21.10;69.50;;;;;;5045357;28;19952;-33
2023/09/01 02:13:00;;;;;;;;;;;21.10;69.60;;;;;;5051516;28;19912;-33
2023/09/01 02:15:26;;;;;;;;;;;21.10;69.90;;;;;;5055142;28;19920;-33
2023/09/01 02:17:52;;;;;;;;;;;21.10;70.00;;;;;;5055975;28;20108;-33
2023/09/01 02:20:18;;;;;;;;;;;21.20;70.20;;;;;;5051574;28;19913;-33
2023/09/01 02:22:44;;;;;;;;;;;21.20;70.30;;;;;;5054315;28;20369;-33
2023/09/01 02:25:12;;;;;;;;;;;21.20;70.40;;;;;;5054307;28;19912;-33
2023/09/01 02:27:38;;;;;;;;;;;21.20;70.40;;;;;;5051322;28;19913;-33
2023/09/01 02:30:04;;;;;;;;;;;21.20;70.60;;;;;;5054078;28;19981;-33
2023/09/01 02:32:30;;;;;;;;;;;21.30;70.60;;;;;;5054912;28;19963;-33
2023/09/01 02:34:57;;;;;;;;;;;21.20;70.60;;;;;;5048103;28;19916;-33
2023/09/01 02:37:23;;;;;;;;;;;21.30;70.70;;;;;;5046581;28;19924;-33
2023/09/01 02:39:49;;;;;;;;;;;21.30;70.80;;;;;;5053313;28;19930;-33
2023/09/01 02:42:14;;;;;;;;;;;21.30;70.70;;;;;;5048618;28;19932;-34
2023/09/01 02:44:40;;;;;;;;;;;21.30;70.80;;;;;;5050533;28;19913;-33
2023/09/01 02:47:06;;;;;;;;;;;21.30;70.80;;;;;;5051797;28;20374;-33
2023/09/01 02:49:32;;;;;;;;;;;21.30;70.90;;;;;;5053508;28;19944;-33
2023/09/01 02:51:58;;;;;;;;;;;21.30;71.00;;;;;;5053895;28;19966;-33
2023/09/01 02:54:24;;;;;;;;;;;21.40;71.10;;;;;;5052489;28;19909;-33
2023/09/01 02:56:49;;;;;;;;;;;21.40;71.20;;;;;;5050609;28;19913;-33
2023/09/01 02:59:16;;;;;;;;;;;21.40;71.30;;;;;;5051219;28;19913;-33
2023/09/01 03:01:41;;;;;;;;;;;21.40;71.40;;;;;;5054514;28;19917;-33
2023/09/01 03:04:08;;;;;;;;;;;21.40;71.50;;;;;;5045216;28;19920;-33
2023/09/01 03:06:34;;;;;;;;;;;21.40;71.50;;;;;;5050403;28;20374;-33
2023/09/01 03:09:00;;;;;;;;;;;21.50;71.60;;;;;;5050049;28;19909;-34
2023/09/01 03:11:25;;;;;;;;;;;21.50;71.70;;;;;;5053874;28;19935;-33
2023/09/01 03:13:51;;;;;;;;;;;21.50;71.70;;;;;;5060708;28;19943;-34
2023/09/01 03:16:17;;;;;;;;;;;21.50;71.80;;;;;;5058878;28;20389;-33
2023/09/01 03:18:43;;;;;;;;;;;21.50;71.80;;;;;;5036827;28;19966;-33
2023/09/01 03:21:10;;;;;;;;;;;21.50;71.80;;;;;;5053377;28;19916;-33
2023/09/01 03:23:36;;;;;;;;;;;21.50;71.70;;;;;;5054426;28;19913;-33
2023/09/01 03:26:05;;;;;;;;;;;21.50;71.80;;;;;;5054501;28;19913;-33
2023/09/01 03:28:31;;;;;;;;;;;21.50;71.90;;;;;;5043603;28;19913;-33
2023/09/01 03:30:57;;;;;;;;;;;21.50;72.00;;;;;;5049257;28;19936;-33
2023/09/01 03:33:23;;;;;;;;;;;21.50;72.00;;;;;;5052422;28;19947;-34
2023/09/01 03:35:49;;;;;;;;;;;21.60;72.10;;;;;;5048715;28;19924;-33
2023/09/01 03:38:15;;;;;;;;;;;21.60;72.20;;;;;;5045106;28;19948;-33
2023/09/01 03:40:41;;;;;;;;;;;21.60;72.30;;;;;;5052814;28;19917;-33
2023/09/01 03:43:10;;;;;;;;;;;21.60;72.40;;;;;;5046252;28;19921;-33
2023/09/01 03:45:36;;;;;;;;;;;21.60;72.30;;;;;;5049543;28;20001;-34
2023/09/01 03:48:02;;;;;;;;;;;21.60;72.30;;;;;;5049640;28;19913;-33
2023/09/01 03:50:28;;;;;;;;;;;21.60;72.30;;;;;;5056016;28;19935;-33
2023/09/01 03:52:54;;;;;;;;;;;21.60;72.20;;;;;;5053081;28;19909;-33
2023/09/01 03:55:20;;;;;;;;;;;21.60;72.20;;;;;;5055759;28;19920;-33
2023/09/01 03:57:45;;;;;;;;;;;21.60;72.90;;;;;;5054203;28;19912;-33
2023/09/01 04:00:12;;;;;;;;;;;21.60;72.20;;;;;;5054795;28;19913;-33
2023/09/01 04:02:38;;;;;;;;;;;21.60;72.10;;;;;;5053599;28;19990;-33
2023/09/01 04:05:04;;;;;;;;;;;21.60;72.10;;;;;;5047901;28;20351;-33
2023/09/01 04:07:29;;;;;;;;;;;21.70;72.20;;;;;;5047748;28;19947;-33
2023/09/01 04:09:56;;;;;;;;;;;21.70;72.30;;;;;;5047303;28;19913;-33
2023/09/01 04:12:22;;;;;;;;;;;21.70;73.10;;;;;;5050134;28;19916;-33
2023/09/01 04:14:48;;;;;;;;;;;21.70;72.40;;;;;;5051476;28;19913;-34
2023/09/01 04:17:14;;;;;;;;;;;21.70;72.50;;;;;;5056855;28;19913;-33
2023/09/01 04:19:40;;;;;;;;;;;21.70;72.60;;;;;;5064328;28;19919;-33
2023/09/01 04:22:05;;;;;;;;;;;21.70;72.60;;;;;;5058972;28;19917;-33
2023/09/01 04:24:31;;;;;;;;;;;21.70;72.70;;;;;;5058548;28;19928;-33
2023/09/01 04:26:57;;;;;;;;;;;21.70;72.70;;;;;;5046154;28;19913;-33
2023/09/01 04:29:23;;;;;;;;;;;21.70;72.70;;;;;;5055420;28;19917;-33
2023/09/01 04:31:49;;;;;;;;;;;21.70;72.60;;;;;;5054067;28;19913;-33
2023/09/01 04:34:15;;;;;;;;;;;21.70;72.60;;;;;;5054215;28;19909;-33
2023/09/01 04:36:41;;;;;;;;;;;21.70;72.50;;;;;;5054112;28;19929;-33
2023/09/01 04:39:06;;;;;;;;;;;21.70;72.50;;;;;;5055975;28;19948;-33
2023/09/01 04:41:32;;;;;;;;;;;21.70;72.60;;;;;;5056531;28;19917;-33
2023/09/01 04:43:59;;;;;;;;;;;21.80;72.60;;;;;;5057457;28;20568;-33
2023/09/01 04:46:25;;;;;;;;;;;21.70;72.50;;;;;;5054533;28;19981;-33
2023/09/01 04:48:50;;;;;;;;;;;21.80;72.70;;;;;;5056888;28;19909;-33
2023/09/01 04:51:16;;;;;;;;;;;21.80;72.60;;;;;;5055561;28;19913;-34
2023/09/01 04:53:42;;;;;;;;;;;21.80;72.70;;;;;;5063118;28;19912;-33
2023/09/01 04:56:08;;;;;;;;;;;21.80;72.80;;;;;;5056198;28;19944;-33
2023/09/01 04:58:34;;;;;;;;;;;21.80;72.90;;;;;;5056440;28;19951;-33
2023/09/01 05:01:00;;;;;;;;;;;21.80;72.90;;;;;;5055806;28;19909;-33
2023/09/01 05:03:26;;;;;;;;;;;21.80;73.20;;;;;;5053364;28;19917;-33
2023/09/01 05:05:52;;;;;;;;;;;21.80;73.20;;;;;;5052709;28;19919;-33
2023/09/01 05:08:18;;;;;;;;;;;21.80;73.20;;;;;;5061516;28;20280;-33
2023/09/01 05:10:44;;;;;;;;;;;21.80;73.10;;;;;;5055697;28;20293;-33
2023/09/01 05:13:10;;;;;;;;;;;21.80;73.00;;;;;;5071739;28;19931;-33
2023/09/01 05:15:35;;;;;;;;;;;21.80;72.90;;;;;;5062703;28;19915;-33
2023/09/01 05:18:02;;;;;;;;;;;21.80;72.90;;;;;;5063754;28;20480;-33
2023/09/01 05:20:28;;;;;;;;;;;21.80;72.80;;;;;;5076885;28;19920;-33
2023/09/01 05:22:53;;;;;;;;;;;21.80;72.60;;;;;;5060261;28;19938;-33
2023/09/01 05:25:19;;;;;;;;;;;21.80;72.60;;;;;;5072904;28;19917;-33
2023/09/01 05:27:45;;;;;;;;;;;21.80;72.60;;;;;;5063522;28;19991;-33
2023/09/01 05:30:12;;;;;;;;;;;21.80;72.70;;;;;;5044627;28;20015;-33
2023/09/01 05:32:38;;;;;;;;;;;21.90;73.00;;;;;;5060145;28;19913;-33
2023/09/01 05:35:05;;;;;;;;;;;21.90;73.10;;;;;;5052517;28;19913;-33
2023/09/01 05:37:31;;;;;;;;;;;21.90;73.20;;;;;;5064093;28;20383;-33
2023/09/01 05:39:57;;;;;;;;;;;21.90;73.30;;;;;;5077836;28;19979;-33
2023/09/01 05:42:23;;;;;;;;;;;21.90;73.40;;;;;;5059614;28;20023;-33
2023/09/01 05:44:49;;;;;;;;;;;21.90;73.50;;;;;;5061813;28;19912;-33
2023/09/01 05:47:14;;;;;;;;;;;21.90;73.60;;;;;;5059496;28;20285;-33
2023/09/01 05:49:40;;;;;;;;;;;21.90;73.50;;;;;;5063702;28;19916;-33
2023/09/01 05:52:06;;;;;;;;;;;21.90;73.50;;;;;;5070221;28;19912;-33
2023/09/01 05:54:32;;;;;;;;;;;21.90;73.40;;;;;;5066046;28;19913;-33
2023/09/01 05:56:58;;;;;;;;;;;21.90;73.30;;;;;;5062929;28;19912;-33
2023/09/01 05:59:24;;;;;;;;;;;21.90;73.30;;;;;;5055727;28;19913;-33
2023/09/01 06:01:50;;;;;;;;;;;21.90;73.10;;;;;;5069656;28;19928;-33
2023/09/01 06:04:16;;;;;;;;;;;21.90;73.10;;;;;;5056792;28;19923;-33
2023/09/01 06:06:42;;;;;;;;;;;21.90;73.20;;;;;;5069486;28;20019;-33
2023/09/01 06:09:07;;;;;;;;;;;21.90;73.10;;;;;;5073517;28;19912;-33
2023/09/01 06:11:35;;;;;;;;;;;21.90;73.20;;;;;;5066391;28;19908;-33
2023/09/01 06:14:01;;;;;;;;;;;21.90;73.40;;;;;;5056014;28;19912;-33
2023/09/01 06:16:27;;;;;;;;;;;21.90;73.50;;;;;;5054914;28;19920;-33
2023/09/01 06:18:53;;;;;;;;;;;22.00;73.60;;;;;;5053637;28;19923;-33
2023/09/01 06:21:19;;;;;;;;;;;21.90;73.70;;;;;;5038802;28;19927;-33
2023/09/01 06:23:45;;;;;;;;;;;22.00;73.80;;;;;;5064096;28;19940;-33
2023/09/01 06:26:12;;;;;;;;;;;22.00;73.80;;;;;;5062279;28;20365;-33
2023/09/01 06:28:39;;;;;;;;;;;22.00;73.80;;;;;;5051278;28;19939;-33
2023/09/01 06:31:05;;;;;;;;;;;22.00;74.60;;;;;;5059498;28;20385;-33
2023/09/01 06:33:30;;;;;;;;;;;22.00;73.90;;;;;;5066231;28;20003;-33
2023/09/01 06:35:56;;;;;;;;;;;22.00;73.90;;;;;;5074412;28;19917;-33
2023/09/01 06:38:22;;;;;;;;;;;22.00;73.90;;;;;;5062651;28;20417;-33
2023/09/01 06:40:49;;;;;;;;;;;22.00;73.90;;;;;;5061472;28;19912;-33
2023/09/01 06:43:15;;;;;;;;;;;22.00;73.80;;;;;;5058938;28;19917;-33
2023/09/01 06:45:40;;;;;;;;;;;22.00;73.80;;;;;;5057016;28;19923;-33
2023/09/01 06:48:06;;;;;;;;;;;22.00;73.80;;;;;;5071216;28;19908;-33
2023/09/01 06:50:32;;;;;;;;;;;22.00;73.80;;;;;;5055255;28;19909;-35
2023/09/01 06:52:58;;;;;;;;;;;22.00;73.90;;;;;;5064230;28;19912;-33
2023/09/01 06:55:24;;;;;;;;;;;22.00;74.00;;;;;;5065291;28;19916;-33
2023/09/01 06:57:50;;;;;;;;;;;22.00;74.00;;;;;;5060408;28;19908;-33
2023/09/01 07:00:16;;;;;;;;;;;22.00;74.10;;;;;;5060955;28;19912;-34
2023/09/01 07:02:42;;;;;;;;;;;22.10;74.20;;;;;;5058700;28;19921;-34
2023/09/01 07:05:08;;;;;;;;;;;22.10;74.20;;;;;;5069001;28;20050;-34
2023/09/01 07:07:34;;;;;;;;;;;22.10;74.30;;;;;;5059282;28;19920;-33
2023/09/01 07:10:00;;;;;;;;;;;22.00;74.40;;;;;;5065998;28;19909;-34
2023/09/01 07:12:26;;;;;;;;;;;22.10;74.40;;;;;;5048165;28;19983;-34
2023/09/01 07:14:51;;;;;;;;;;;22.10;74.40;;;;;;5074210;28;19920;-34
2023/09/01 07:17:23;;;;;;;;;;;22.10;74.40;;;;;;5052893;28;19919;-34
2023/09/01 07:19:49;;;;;;;;;;;22.10;74.30;;;;;;5056084;28;19913;-34
2023/09/01 07:22:15;;;;;;;;;;;22.10;74.20;;;;;;5056749;28;20015;-34
2023/09/01 07:24:41;;;;;;;;;;;22.10;74.30;;;;;;5073889;28;19920;-34
2023/09/01 07:27:07;;;;;;;;;;;22.10;74.30;;;;;;5059363;28;20627;-34
2023/09/01 07:29:33;;;;;;;;;;;22.10;74.40;;;;;;5039861;28;19970;-33
2023/09/01 07:32:03;;;;;;;;;;;22.10;74.40;;;;;;5059127;28;20348;-33
2023/09/01 07:34:29;;;;;;;;;;;22.10;74.40;;;;;;5071406;28;19920;-34
2023/09/01 07:36:55;;;;;;;;;;;22.10;74.40;;;;;;5048846;28;19916;-33
2023/09/01 07:39:20;;;;;;;;;;;22.10;74.50;;;;;;5074206;28;19912;-34
2023/09/01 07:41:46;;;;;;;;;;;22.10;74.50;;;;;;5065499;28;19939;-34
2023/09/01 07:44:17;;;;;;;;;;;22.10;74.60;;;;;;5066978;28;19920;-34
2023/09/01 07:46:43;;;;;;;;;;;22.10;74.80;;;;;;5067500;28;19917;-34
2023/09/01 07:49:09;;;;;;;;;;;22.10;74.70;;;;;;5064859;28;20262;-33
2023/09/01 07:51:35;;;;;;;;;;;22.10;74.80;;;;;;5068559;28;19947;-34
2023/09/01 07:54:01;;;;;;;;;;;22.10;75.00;;;;;;5075919;28;19947;-34
2023/09/01 07:56:27;;;;;;;;;;;22.10;74.90;;;;;;5065585;28;20404;-34
2023/09/01 07:58:52;;;;;;;;;;;22.10;74.80;;;;;;5080423;28;20715;-34
2023/09/01 08:01:18;;;;;;;;;;;22.10;74.60;;;;;;5073275;28;19912;-33
2023/09/01 08:03:44;;;;;;;;;;;22.10;74.60;;;;;;5059181;28;19909;-34
2023/09/01 08:06:10;;;;;;;;;;;22.10;74.70;;;;;;5071597;28;19998;-34
2023/09/01 08:08:36;;;;;;;;;;;22.20;74.60;;;;;;5070062;28;19908;-34
2023/09/01 08:11:02;;;;;;;;;;;22.20;74.70;;;;;;5059978;28;20278;-33
2023/09/01 08:13:29;;;;;;;;;;;22.10;74.70;;;;;;5060038;28;20003;-34
2023/09/01 08:15:55;;;;;;;;;;;22.10;74.70;;;;;;5062562;28;19919;-33
2023/09/01 08:18:20;;;;;;;;;;;22.20;74.60;;;;;;5065128;28;19912;-33
2023/09/01 08:20:47;;;;;;;;;;;22.20;74.70;;;;;;5065208;28;20057;-34
2023/09/01 08:23:13;;;;;;;;;;;22.20;74.90;;;;;;5067624;28;19928;-34
2023/09/01 08:25:39;;;;;;;;;;;22.20;75.00;;;;;;5078416;28;19908;-33
2023/09/01 08:28:05;;;;;;;;;;;22.20;75.20;;;;;;5066029;28;19919;-34
2023/09/01 08:30:30;;;;;;;;;;;22.20;75.10;;;;;;5044363;28;19909;-34
2023/09/01 08:32:56;;;;;;;;;;;22.10;75.00;;;;;;5053654;28;19917;-33
2023/09/01 08:35:22;;;;;;;;;;;22.20;75.30;;;;;;5065912;28;20286;-34
2023/09/01 08:37:48;;;;;;;;;;;22.20;75.20;;;;;;5069078;28;19931;-34
2023/09/01 08:40:14;;;;;;;;;;;22.20;75.30;;;;;;5057525;28;19920;-33
2023/09/01 08:42:46;;;;;;;;;;;22.20;75.10;;;;;;5063315;28;19921;-33
2023/09/01 08:45:13;;;;;;;;;;;22.20;75.00;;;;;;5078437;28;19971;-33
2023/09/01 08:47:42;;;;;;;;;;;22.20;74.90;;;;;;5065024;28;19908;-33
2023/09/01 08:50:08;;;;;;;;;;;22.20;74.90;;;;;;5065478;28;20009;-34
2023/09/01 08:52:35;;;;;;;;;;;22.20;74.90;;;;;;5073258;28;19920;-34
2023/09/01 08:55:00;;;;;;;;;;;22.20;74.80;;;;;;5064636;28;19908;-34
2023/09/01 08:57:26;;;;;;;;;;;22.20;74.80;;;;;;5068664;28;19970;-33
2023/09/01 08:59:53;;;;;;;;;;;22.20;74.80;;;;;;5067718;28;19913;-34
2023/09/01 09:02:18;;;;;;;;;;;22.20;74.90;;;;;;5066644;28;19956;-34
2023/09/01 09:04:48;;;;;;;;;;;22.20;75.10;;;;;;5071344;28;19904;-34
2023/09/01 09:07:15;;;;;;;;;;;22.20;75.10;;;;;;5057677;28;19917;-34
2023/09/01 09:09:50;;;;;;;;;;;22.20;75.30;;;;;;5071701;28;19916;-34
2023/09/01 09:12:16;;;;;;;;;;;22.20;75.30;;;;;;5068028;28;19972;-34
2023/09/01 09:14:46;;;;;;;;;;;22.20;75.40;;;;;;5064906;28;19913;-34
2023/09/01 09:17:11;;;;;;;;;;;22.20;75.50;;;;;;5063235;28;19913;-33
2023/09/01 09:19:49;;;;;;;;;;;22.20;75.40;;;;;;5064488;28;19913;-34
2023/09/01 09:22:15;;;;;;;;;;;22.20;75.40;;;;;;5056591;28;20003;-34
2023/09/01 09:24:41;;;;;;;;;;;22.20;75.30;;;;;;5057821;28;19917;-33
2023/09/01 09:27:07;;;;;;;;;;;22.20;75.20;;;;;;5064825;28;20631;-34
2023/09/01 09:29:40;;;;;;;;;;;22.20;75.20;;;;;;5047283;28;19994;-34
2023/09/01 09:32:21;;;;;;;;;;;22.20;75.10;;;;;;5058686;28;19908;-34
2023/09/01 09:35:03;;;;;;;;;;;22.20;75.20;;;;;;5071592;28;20350;-34
2023/09/01 09:37:29;;;;;;;;;;;22.20;75.20;;;;;;5052876;28;19916;-34
2023/09/01 09:40:08;;;;;;;;;;;22.20;75.20;;;;;;5065918;28;19918;-34
2023/09/01 09:42:38;;;;;;;;;;;22.20;75.20;;;;;;5062481;28;19920;-34
2023/09/01 09:45:05;;;;;;;;;;;22.30;75.30;;;;;;5057048;28;19913;-34
2023/09/01 09:47:33;;;;;;;;;;;22.30;75.50;;;;;;5056426;28;19919;-33
2023/09/01 09:49:59;;;;;;;;;;;22.30;75.60;;;;;;5063758;28;20408;-34
2023/09/01 09:52:25;;;;;;;;;;;22.30;75.90;;;;;;5070760;28;19912;-34
2023/09/01 09:54:51;;;;;;;;;;;22.30;75.90;;;;;;5045004;28;19916;-34
2023/09/01 09:57:17;;;;;;;;;;;22.30;75.80;;;;;;5073340;28;19913;-34
2023/09/01 09:59:56;;;;;;;;;;;22.30;75.90;;;;;;5052047;28;19954;-33
2023/09/01 10:02:25;;;;;;;;;;;22.20;76.00;;;;;;5062301;28;19956;-34
2023/09/01 10:04:52;;;;;;;;;;;22.30;75.90;;;;;;5045402;28;19909;-34
2023/09/01 10:07:18;;;;;;;;;;;22.20;75.70;;;;;;5054901;28;19920;-33
2023/09/01 10:09:44;;;;;;;;;;;22.30;75.70;;;;;;5067759;28;19920;-34
2023/09/01 10:12:09;;;;;;;;;;;22.30;75.70;;;;;;5039078;28;19909;-34
2023/09/01 10:14:39;;;;;;;;;;;22.30;75.70;;;;;;5062619;28;19944;-34
2023/09/01 10:17:06;;;;;;;;;;;22.30;75.60;;;;;;5061080;28;20384;-33
2023/09/01 10:19:32;;;;;;;;;;;22.30;75.60;;;;;;5078633;28;19913;-34
2023/09/01 10:21:58;;;;;;;;;;;22.30;75.70;;;;;;5052300;28;20019;-34
2023/09/01 10:24:24;;;;;;;;;;;22.30;75.70;;;;;;5061261;28;19908;-33
2023/09/01 10:27:08;;;;;;;;;;;22.30;75.70;;;;;;5055224;28;19913;-34
2023/09/01 10:29:34;;;;;;;;;;;22.30;75.90;;;;;;5056885;28;19920;-34
2023/09/01 10:32:17;;;;;;;;;;;22.30;76.00;;;;;;5062356;28;20359;-35
2023/09/01 10:34:52;;;;;;;;;;;22.30;76.10;;;;;;5057810;28;19999;-35
2023/09/01 10:37:25;;;;;;;;;;;22.30;76.70;;;;;;5063082;28;19924;-34
2023/09/01 10:39:56;;;;;;;;;;;22.30;76.40;;;;;;5069660;28;19964;-34
2023/09/01 10:42:48;;;;;;;;;;;22.30;76.40;;;;;;5069827;28;19920;-34
2023/09/01 10:45:14;;;;;;;;;;;22.30;76.50;;;;;;5061386;28;19932;-33
2023/09/01 10:47:40;;;;;;;;;;;22.30;76.30;;;;;;5062482;28;19951;-34
2023/09/01 10:50:06;;;;;;;;;;;22.30;76.20;;;;;;5068622;28;19908;-34
2023/09/01 10:52:32;;;;;;;;;;;22.30;76.10;;;;;;5053618;28;19909;-33
2023/09/01 10:55:03;;;;;;;;;;;22.30;76.10;;;;;;5055663;28;19920;-34
2023/09/01 10:57:40;;;;;;;;;;;22.30;76.00;;;;;;5056062;28;19913;-34
2023/09/01 11:00:26;;;;;;;;;;;22.30;76.10;;;;;;5064549;28;19935;-34
2023/09/01 11:02:52;;;;;;;;;;;22.30;76.10;;;;;;5055690;28;19994;-34
2023/09/01 11:05:37;;;;;;;;;;;22.30;76.10;;;;;;5065953;28;19912;-34
2023/09/01 11:08:10;;;;;;;;;;;22.30;76.20;;;;;;5073852;28;19917;-33
2023/09/01 11:10:38;;;;;;;;;;;22.30;76.30;;;;;;5063659;28;19909;-33
2023/09/01 11:13:16;;;;;;;;;;;22.30;76.40;;;;;;5060970;28;19917;-34
2023/09/01 11:15:45;;;;;;;;;;;22.30;76.50;;;;;;5065739;28;19912;-33
2023/09/01 11:18:15;;;;;;;;;;;22.40;76.70;;;;;;5065429;28;19908;-34
2023/09/01 11:20:40;;;;;;;;;;;22.30;76.80;;;;;;5066373;28;19948;-34
2023/09/01 11:23:06;;;;;;;;;;;22.40;76.70;;;;;;5060454;28;19943;-33
2023/09/01 11:25:32;;;;;;;;;;;22.30;76.70;;;;;;5058733;28;19909;-34
2023/09/01 11:27:58;;;;;;;;;;;22.30;76.60;;;;;;5058566;28;19912;-34
2023/09/01 11:30:24;;;;;;;;;;;22.30;76.50;;;;;;5074239;28;19915;-34
2023/09/01 11:32:51;;;;;;;;;;;22.40;76.50;;;;;;5066464;28;20259;-34
2023/09/01 11:35:21;;;;;;;;;;;22.40;76.50;;;;;;5055096;28;19916;-34
2023/09/01 11:37:47;;;;;;;;;;;22.40;76.50;;;;;;5060220;28;19921;-34
2023/09/01 11:40:13;;;;;;;;;;;22.40;76.50;;;;;;5065902;28;19976;-33
2023/09/01 11:42:39;;;;;;;;;;;22.40;77.30;;;;;;5065631;28;19924;-34
2023/09/01 11:45:06;;;;;;;;;;;22.40;76.50;;;;;;5040669;28;19935;-33
2023/09/01 11:47:32;;;;;;;;;;;22.40;76.60;;;;;;5072840;28;19919;-34
2023/09/01 11:49:58;;;;;;;;;;;22.40;76.60;;;;;;5065705;28;19916;-34
2023/09/01 11:52:23;;;;;;;;;;;22.40;76.60;;;;;;5049413;28;20443;-34
2023/09/01 11:54:49;;;;;;;;;;;22.40;76.70;;;;;;5065480;28;19928;-34
2023/09/01 11:57:15;;;;;;;;;;;22.40;76.80;;;;;;5052945;28;19955;-34
2023/09/01 11:59:44;;;;;;;;;;;22.40;76.70;;;;;;5066400;28;19920;-34
2023/09/01 12:02:12;;;;;;;;;;;22.40;77.00;;;;;;5072782;28;19944;-34
2023/09/01 12:04:47;;;;;;;;;;;22.40;76.90;;;;;;5065528;28;19912;-34
2023/09/01 12:07:26;;;;;;;;;;;22.40;77.00;;;;;;5053439;28;20475;-33
2023/09/01 12:09:52;;;;;;;;;;;22.40;77.10;;;;;;5071162;28;19916;-34
2023/09/01 12:12:18;;;;;;;;;;;22.40;77.00;;;;;;5062826;28;19935;-34
2023/09/01 12:14:44;;;;;;;;;;;22.40;76.80;;;;;;5077668;28;19909;-33
2023/09/01 12:17:20;;;;;;;;;;;22.40;76.70;;;;;;5067289;28;19908;-34
2023/09/01 12:19:47;;;;;;;;;;;22.40;76.70;;;;;;5064959;28;19920;-34
2023/09/01 12:22:13;;;;;;;;;;;22.40;76.80;;;;;;5064096;28;19921;-34
2023/09/01 12:24:39;;;;;;;;;;;22.40;76.80;;;;;;5071786;28;20365;-34
2023/09/01 12:27:05;;;;;;;;;;;22.40;76.80;;;;;;5046993;28;19920;-34
2023/09/01 12:29:31;;;;;;;;;;;22.40;76.70;;;;;;5068137;28;19912;-34
2023/09/01 12:31:57;;;;;;;;;;;22.40;76.80;;;;;;5064705;28;19916;-34
2023/09/01 12:34:23;;;;;;;;;;;22.40;76.90;;;;;;5070582;28;19917;-34
2023/09/01 12:36:49;;;;;;;;;;;22.40;76.90;;;;;;5061640;28;19943;-34
2023/09/01 12:39:15;;;;;;;;;;;22.40;76.90;;;;;;5072055;28;19916;-33
2023/09/01 12:41:41;;;;;;;;;;;22.40;77.00;;;;;;5065223;28;19921;-33
2023/09/01 12:44:07;;;;;;;;;;;22.40;77.30;;;;;;5071681;28;19909;-34
2023/09/01 12:46:32;;;;;;;;;;;22.50;77.40;;;;;;5066851;28;20459;-34
2023/09/01 12:48:58;;;;;;;;;;;22.40;77.30;;;;;;5067977;28;20371;-34
2023/09/01 12:51:24;;;;;;;;;;;22.40;77.40;;;;;;5073469;28;19952;-33
2023/09/01 12:53:50;;;;;;;;;;;22.50;77.40;;;;;;5062856;28;19909;-34
2023/09/01 12:56:17;;;;;;;;;;;22.40;77.00;;;;;;5062614;28;19913;-34
2023/09/01 12:58:42;;;;;;;;;;;22.40;77.00;;;;;;5076009;28;20436;-33
2023/09/01 13:01:08;;;;;;;;;;;22.50;77.00;;;;;;5073591;28;19915;-34
2023/09/01 13:03:34;;;;;;;;;;;22.50;77.00;;;;;;5069824;28;20690;-34
2023/09/01 13:06:00;;;;;;;;;;;22.50;76.90;;;;;;5063810;28;20069;-33
2023/09/01 13:08:29;;;;;;;;;;;22.50;76.90;;;;;;5062226;28;20011;-34
2023/09/01 13:10:55;;;;;;;;;;;22.50;77.00;;;;;;5062748;28;19940;-33
2023/09/01 13:13:21;;;;;;;;;;;22.50;77.00;;;;;;5057893;28;19939;-34
2023/09/01 13:15:48;;;;;;;;;;;22.50;77.10;;;;;;5070012;28;19939;-34
2023/09/01 13:18:14;;;;;;;;;;;22.50;77.20;;;;;;5062665;28;19913;-34
2023/09/01 13:20:40;;;;;;;;;;;22.50;77.20;;;;;;5057751;28;19913;-34
2023/09/01 13:23:06;;;;;;;;;;;22.50;77.40;;;;;;5059616;28;19924;-34
2023/09/01 13:25:32;;;;;;;;;;;22.50;77.30;;;;;;5063857;28;19913;-34
2023/09/01 13:27:58;;;;;;;;;;;22.50;77.40;;;;;;5063498;28;19920;-34
2023/09/01 13:30:24;;;;;;;;;;;22.50;77.40;;;;;;5063727;28;19916;-33
2023/09/01 13:32:52;;;;;;;;;;;22.50;77.50;;;;;;5070075;28;19918;-34
2023/09/01 13:35:18;;;;;;;;;;;22.50;77.60;;;;;;5066076;28;19909;-34
2023/09/01 13:37:43;;;;;;;;;;;22.50;77.60;;;;;;5058694;28;19978;-34
2023/09/01 13:40:10;;;;;;;;;;;22.50;77.60;;;;;;5055433;28;19909;-34
2023/09/01 13:42:35;;;;;;;;;;;22.50;77.60;;;;;;5064215;28;19921;-34
2023/09/01 13:45:01;;;;;;;;;;;22.60;77.70;;;;;;5061666;28;19913;-34
2023/09/01 13:47:27;;;;;;;;;;;22.60;77.90;;;;;;5071831;28;19990;-34
2023/09/01 13:49:53;;;;;;;;;;;22.50;77.90;;;;;;5062465;28;19927;-34
2023/09/01 13:52:19;;;;;;;;;;;22.50;77.80;;;;;;5054601;28;19955;-34
2023/09/01 13:54:46;;;;;;;;;;;22.50;77.90;;;;;;5063247;28;20340;-34
2023/09/01 13:57:12;;;;;;;;;;;22.60;78.00;;;;;;5062915;28;19988;-33
2023/09/01 13:59:38;;;;;;;;;;;22.60;78.00;;;;;;5056688;28;19909;-34
2023/09/01 14:02:04;;;;;;;;;;;22.60;77.90;;;;;;5062750;28;19958;-34
2023/09/01 14:04:30;;;;;;;;;;;22.60;78.00;;;;;;5063436;28;20423;-34
2023/09/01 14:06:56;;;;;;;;;;;22.60;78.00;;;;;;5062742;28;19916;-34
2023/09/01 14:09:22;;;;;;;;;;;22.60;78.00;;;;;;5078497;28;19916;-34
2023/09/01 14:11:48;;;;;;;;;;;22.60;78.00;;;;;;5063017;28;19913;-34
2023/09/01 14:14:14;;;;;;;;;;;22.60;78.20;;;;;;5055556;28;19960;-34